createdAt,value
2019-04-30T00:00:38.261Z,60.00
2019-04-30T00:03:15.947Z,59.40
2019-04-30T00:05:44.983Z,59.90
2019-04-30T00:08:15.909Z,59.60
2019-04-30T00:10:45.433Z,59.70
2019-04-30T00:13:20.528Z,59.70
2019-04-30T00:15:48.031Z,60.00
2019-04-30T00:18:17.283Z,60.40
2019-04-30T00:20:47.076Z,60.60
2019-04-30T00:23:18.020Z,59.90
2019-04-30T00:25:47.684Z,60.00
2019-04-30T00:28:17.046Z,60.20
2019-04-30T00:30:47.826Z,60.20
2019-04-30T00:33:22.097Z,60.30
2019-04-30T00:35:49.717Z,60.10
2019-04-30T00:38:19.450Z,59.80
2019-04-30T00:40:48.784Z,60.10
2019-04-30T00:43:18.152Z,60.20
2019-04-30T00:45:47.692Z,60.10
2019-04-30T00:48:26.872Z,60.20
2019-04-30T00:50:48.175Z,59.70
2019-04-30T00:53:17.552Z,60.00
2019-04-30T00:55:48.374Z,60.00
2019-04-30T00:58:24.725Z,60.70
2019-04-30T01:00:59.743Z,60.40
2019-04-30T01:03:30.906Z,60.20
2019-04-30T01:06:00.199Z,60.10
2019-04-30T01:08:29.503Z,60.10
2019-04-30T01:10:59.807Z,59.90
2019-04-30T01:13:29.942Z,60.30
2019-04-30T01:15:59.266Z,60.20
2019-04-30T01:18:32.047Z,59.70
2019-04-30T01:21:02.947Z,60.30
2019-04-30T01:23:30.776Z,59.90
2019-04-30T01:26:00.224Z,60.10
2019-04-30T01:28:29.761Z,60.10
2019-04-30T01:31:01.890Z,60.20
2019-04-30T01:33:34.912Z,60.10
2019-04-30T01:36:04.076Z,60.40
2019-04-30T01:38:33.367Z,60.60
2019-04-30T01:41:02.739Z,60.50
2019-04-30T01:43:34.589Z,60.70
2019-04-30T01:46:09.383Z,60.50
2019-04-30T01:48:34.299Z,61.10
2019-04-30T01:51:03.706Z,60.00
2019-04-30T01:53:33.115Z,60.30
2019-04-30T01:56:14.509Z,60.10
2019-04-30T01:58:51.120Z,59.90
2019-04-30T02:01:22.612Z,59.80
2019-04-30T02:03:52.111Z,60.10
2019-04-30T02:06:21.431Z,59.90
2019-04-30T02:08:50.767Z,60.70
2019-04-30T02:11:20.118Z,60.10
2019-04-30T02:13:49.680Z,60.20
2019-04-30T02:16:21.116Z,60.00
2019-04-30T02:18:50.213Z,60.10
2019-04-30T02:21:19.694Z,60.00
2019-04-30T02:23:49.414Z,60.10
2019-04-30T02:26:18.963Z,60.00
2019-04-30T02:28:49.507Z,60.90
2019-04-30T02:31:22.690Z,60.10
2019-04-30T02:33:52.574Z,60.20
2019-04-30T02:36:45.452Z,60.30
2019-04-30T02:39:14.808Z,60.00
2019-04-30T02:41:46.586Z,60.30
2019-04-30T02:44:36.001Z,60.50
2019-04-30T02:47:05.611Z,60.00
2019-04-30T02:49:39.786Z,60.00
2019-04-30T02:52:11.106Z,60.30
2019-04-30T02:54:42.827Z,60.90
2019-04-30T02:57:13.110Z,60.10
2019-04-30T03:00:00.329Z,60.30
2019-04-30T03:02:33.206Z,60.00
2019-04-30T03:05:02.472Z,60.50
2019-04-30T03:07:31.596Z,60.70
2019-04-30T03:10:00.828Z,60.70
2019-04-30T03:12:30.584Z,60.70
2019-04-30T03:15:00.897Z,60.20
2019-04-30T03:17:43.797Z,60.20
2019-04-30T03:20:31.774Z,60.90
2019-04-30T03:22:51.259Z,60.20
2019-04-30T03:25:20.542Z,60.70
2019-04-30T03:27:49.942Z,60.50
2019-04-30T03:30:21.963Z,61.00
2019-04-30T03:32:56.054Z,61.20
2019-04-30T03:35:22.843Z,60.50
2019-04-30T03:37:51.655Z,60.30
2019-04-30T03:40:20.699Z,60.30
2019-04-30T03:42:49.853Z,60.10
2019-04-30T03:45:20.471Z,60.20
2019-04-30T03:47:50.420Z,60.10
2019-04-30T03:50:19.984Z,61.20
2019-04-30T03:52:50.339Z,60.70
2019-04-30T03:55:20.536Z,60.10
2019-04-30T03:57:51.948Z,60.20
2019-04-30T04:00:42.236Z,60.50
2019-04-30T04:03:10.206Z,60.80
2019-04-30T04:05:44.847Z,61.20
2019-04-30T04:08:36.169Z,60.80
2019-04-30T04:11:12.215Z,61.00
2019-04-30T04:13:42.871Z,61.60
2019-04-30T04:16:12.106Z,60.30
2019-04-30T04:18:41.151Z,60.10
2019-04-30T04:21:16.361Z,60.30
2019-04-30T04:23:41.312Z,60.70
2019-04-30T04:26:10.452Z,60.60
2019-04-30T04:28:43.177Z,60.10
2019-04-30T04:31:10.448Z,60.60
2019-04-30T04:33:39.725Z,61.20
2019-04-30T04:36:09.228Z,60.80
2019-04-30T04:38:40.345Z,61.50
2019-04-30T04:41:10.402Z,60.60
2019-04-30T04:43:40.276Z,61.30
2019-04-30T04:46:09.847Z,60.60
2019-04-30T04:48:39.433Z,60.60
2019-04-30T04:51:27.180Z,61.60
2019-04-30T04:53:44.048Z,60.70
2019-04-30T04:56:13.940Z,60.80
2019-04-30T04:58:43.423Z,61.00
2019-04-30T05:01:14.011Z,61.40
2019-04-30T05:03:43.158Z,61.40
2019-04-30T05:06:12.315Z,61.10
2019-04-30T05:08:41.544Z,60.60
2019-04-30T05:11:10.710Z,60.50
2019-04-30T05:13:39.761Z,61.00
2019-04-30T05:16:09.265Z,60.80
2019-04-30T05:18:39.115Z,60.50
2019-04-30T05:21:08.879Z,61.10
2019-04-30T05:23:41.116Z,61.30
2019-04-30T05:26:11.112Z,62.00
2019-04-30T05:28:39.950Z,61.40
2019-04-30T05:31:09.215Z,61.00
2019-04-30T05:33:39.073Z,61.00
2019-04-30T05:36:09.379Z,60.80
2019-04-30T05:38:39.277Z,60.40
2019-04-30T05:41:09.567Z,61.10
2019-04-30T05:43:38.829Z,60.70
2019-04-30T05:46:08.352Z,61.90
2019-04-30T05:48:39.728Z,61.70
2019-04-30T05:51:09.136Z,60.90
2019-04-30T05:53:39.419Z,60.50
2019-04-30T05:56:09.431Z,61.10
2019-04-30T05:58:39.754Z,61.70
2019-04-30T06:01:09.807Z,61.10
2019-04-30T06:03:39.235Z,60.80
2019-04-30T06:06:08.792Z,60.70
2019-04-30T06:08:51.631Z,60.40
2019-04-30T06:11:39.814Z,60.20
2019-04-30T06:14:49.301Z,61.00
2019-04-30T06:17:19.728Z,61.00
2019-04-30T06:19:51.466Z,61.00
2019-04-30T06:22:19.862Z,60.80
2019-04-30T06:24:52.881Z,60.70
2019-04-30T06:27:22.164Z,61.40
2019-04-30T06:29:51.409Z,60.20
2019-04-30T06:32:20.787Z,60.60
2019-04-30T06:34:50.020Z,60.80
2019-04-30T06:37:19.658Z,61.40
2019-04-30T06:39:49.983Z,62.00
2019-04-30T06:42:19.619Z,61.20
2019-04-30T06:44:49.540Z,61.50
2019-04-30T06:47:32.011Z,61.00
2019-04-30T06:49:50.049Z,60.80
2019-04-30T06:52:22.981Z,61.10
2019-04-30T06:54:50.109Z,60.70
2019-04-30T06:57:19.872Z,61.10
2019-04-30T06:59:51.289Z,60.60
2019-04-30T07:02:20.149Z,60.90
2019-04-30T07:04:49.475Z,60.60
2019-04-30T07:07:23.052Z,60.40
2019-04-30T07:10:01.691Z,60.40
2019-04-30T07:12:40.961Z,60.10
2019-04-30T07:15:10.377Z,60.00
2019-04-30T07:17:40.685Z,60.00
2019-04-30T07:20:10.470Z,60.60
2019-04-30T07:22:48.898Z,59.70
2019-04-30T07:25:10.715Z,59.40
2019-04-30T07:27:40.266Z,59.60
2019-04-30T07:30:10.204Z,59.60
2019-04-30T07:32:39.382Z,59.70
2019-04-30T07:35:09.524Z,59.50
2019-04-30T07:37:39.402Z,59.30
2019-04-30T07:40:09.653Z,59.20
2019-04-30T07:42:44.727Z,59.00
2019-04-30T07:45:09.810Z,58.60
2019-04-30T07:47:39.493Z,58.50
2019-04-30T07:50:10.768Z,58.40
2019-04-30T07:52:57.977Z,58.50
2019-04-30T07:55:10.654Z,58.50
2019-04-30T07:57:40.572Z,58.50
2019-04-30T08:00:10.235Z,58.40
2019-04-30T08:02:44.462Z,58.30
2019-04-30T08:05:23.246Z,58.30
2019-04-30T08:07:52.687Z,58.20
2019-04-30T08:10:21.889Z,58.20
2019-04-30T08:12:51.499Z,58.30
2019-04-30T08:15:20.977Z,58.20
2019-04-30T08:18:02.191Z,58.20
2019-04-30T08:20:20.985Z,58.20
2019-04-30T08:22:50.284Z,58.30
2019-04-30T08:25:21.886Z,58.30
2019-04-30T08:27:50.333Z,58.40
2019-04-30T08:30:26.181Z,58.30
2019-04-30T08:32:50.405Z,58.30
2019-04-30T08:35:19.876Z,58.40
2019-04-30T08:37:49.731Z,58.50
2019-04-30T08:40:19.281Z,58.30
2019-04-30T08:42:49.623Z,58.40
2019-04-30T08:45:19.664Z,58.10
2019-04-30T08:47:49.425Z,57.90
2019-04-30T08:50:19.900Z,58.10
2019-04-30T08:52:50.204Z,58.40
2019-04-30T08:55:22.574Z,58.20
2019-04-30T08:57:50.662Z,58.40
2019-04-30T09:00:20.093Z,58.30
2019-04-30T09:02:49.463Z,58.00
2019-04-30T09:05:28.690Z,58.30
2019-04-30T09:07:59.844Z,58.20
2019-04-30T09:10:29.491Z,58.10
2019-04-30T09:12:59.748Z,58.40
2019-04-30T09:15:29.205Z,58.30
2019-04-30T09:18:03.493Z,58.30
2019-04-30T09:20:29.324Z,58.00
2019-04-30T09:22:59.558Z,58.50
2019-04-30T09:25:28.913Z,58.40
2019-04-30T09:27:58.838Z,58.50
2019-04-30T09:30:29.914Z,58.40
2019-04-30T09:32:59.476Z,58.40
2019-04-30T09:35:31.793Z,58.30
2019-04-30T09:38:02.003Z,58.20
2019-04-30T09:40:32.481Z,58.30
2019-04-30T09:43:01.506Z,58.70
2019-04-30T09:45:30.733Z,58.50
2019-04-30T09:47:59.818Z,58.50
2019-04-30T09:50:29.515Z,58.50
2019-04-30T09:53:00.297Z,58.60
2019-04-30T09:55:29.745Z,58.80
2019-04-30T09:57:58.996Z,58.80
2019-04-30T10:00:29.551Z,58.80
2019-04-30T10:02:59.859Z,58.80
2019-04-30T10:05:29.492Z,58.70
2019-04-30T10:07:59.387Z,58.80
2019-04-30T10:10:34.173Z,59.00
2019-04-30T10:13:03.263Z,59.00
2019-04-30T10:15:42.734Z,58.90
2019-04-30T10:18:11.819Z,58.70
2019-04-30T10:20:42.583Z,58.90
2019-04-30T10:23:11.702Z,59.00
2019-04-30T10:25:40.864Z,58.90
2019-04-30T10:28:10.219Z,58.90
2019-04-30T10:30:39.431Z,58.90
2019-04-30T10:33:09.981Z,58.60
2019-04-30T10:35:39.265Z,58.30
2019-04-30T10:38:09.846Z,58.40
2019-04-30T10:40:39.237Z,58.20
2019-04-30T10:43:08.986Z,58.40
2019-04-30T10:45:39.092Z,58.10
2019-04-30T10:48:08.313Z,57.90
2019-04-30T10:50:40.688Z,57.60
2019-04-30T10:53:09.136Z,57.40
2019-04-30T10:55:38.846Z,57.90
2019-04-30T10:58:08.140Z,58.00
2019-04-30T11:00:39.105Z,58.10
2019-04-30T11:03:19.019Z,57.40
2019-04-30T11:05:41.286Z,57.90
2019-04-30T11:08:10.666Z,57.90
2019-04-30T11:10:40.041Z,57.60
2019-04-30T11:13:09.323Z,57.90
2019-04-30T11:15:39.483Z,58.00
2019-04-30T11:18:09.105Z,58.10
2019-04-30T11:20:39.694Z,58.10
2019-04-30T11:23:14.472Z,57.90
2019-04-30T11:25:41.123Z,58.00
2019-04-30T11:28:11.235Z,57.60
2019-04-30T11:30:41.004Z,57.80
2019-04-30T11:33:10.529Z,57.30
2019-04-30T11:35:39.835Z,57.90
2019-04-30T11:38:09.049Z,58.10
2019-04-30T11:40:39.982Z,58.10
2019-04-30T11:43:08.939Z,57.50
2019-04-30T11:46:08.684Z,57.20
2019-04-30T11:48:38.734Z,57.60
2019-04-30T11:51:09.431Z,57.80
2019-04-30T11:53:39.010Z,57.50
2019-04-30T11:56:08.275Z,57.80
2019-04-30T11:58:38.866Z,57.90
2019-04-30T12:01:11.754Z,57.60
2019-04-30T12:03:40.965Z,57.40
2019-04-30T12:06:10.245Z,57.60
2019-04-30T12:08:56.149Z,57.90
2019-04-30T12:11:30.824Z,57.50
2019-04-30T12:13:59.958Z,57.70
2019-04-30T12:16:29.091Z,57.50
2019-04-30T12:19:00.457Z,57.90
2019-04-30T12:21:29.159Z,57.50
2019-04-30T12:23:58.356Z,57.50
2019-04-30T12:26:28.928Z,57.60
2019-04-30T12:28:58.227Z,57.40
2019-04-30T12:31:29.634Z,57.40
2019-04-30T12:33:58.352Z,57.40
2019-04-30T12:36:28.944Z,57.50
2019-04-30T12:38:58.179Z,58.10
2019-04-30T12:41:27.323Z,57.80
2019-04-30T12:43:56.547Z,58.20
2019-04-30T12:46:25.738Z,57.50
2019-04-30T12:49:00.007Z,57.70
2019-04-30T12:51:45.320Z,57.70
2019-04-30T12:54:12.380Z,57.60
2019-04-30T12:56:59.653Z,56.90
2019-04-30T12:59:29.273Z,57.10
2019-04-30T13:01:59.330Z,57.10
2019-04-30T13:04:29.345Z,57.30
2019-04-30T13:07:01.652Z,56.80
2019-04-30T13:09:30.736Z,57.30
2019-04-30T13:12:01.485Z,57.40
2019-04-30T13:14:31.664Z,57.20
2019-04-30T13:17:01.301Z,57.30
2019-04-30T13:19:30.409Z,57.20
2019-04-30T13:21:59.584Z,57.10
2019-04-30T13:24:31.164Z,56.90
2019-04-30T13:26:59.635Z,57.10
2019-04-30T13:29:37.163Z,57.30
2019-04-30T13:32:06.340Z,57.00
2019-04-30T13:34:43.422Z,56.90
2019-04-30T13:37:12.656Z,57.40
2019-04-30T13:39:52.891Z,56.80
2019-04-30T13:42:41.295Z,57.30
2019-04-30T13:45:11.183Z,57.30
2019-04-30T13:47:40.315Z,57.10
2019-04-30T13:50:10.182Z,56.90
2019-04-30T13:52:39.349Z,56.90
2019-04-30T13:55:10.823Z,56.70
2019-04-30T13:57:39.725Z,56.90
2019-04-30T14:00:11.634Z,57.30
2019-04-30T14:02:44.913Z,57.00
2019-04-30T14:05:15.747Z,57.40
2019-04-30T14:08:13.108Z,56.90
2019-04-30T14:10:44.620Z,57.00
2019-04-30T14:13:13.836Z,57.30
2019-04-30T14:15:43.574Z,57.20
2019-04-30T14:18:12.706Z,57.40
2019-04-30T14:20:41.813Z,57.30
2019-04-30T14:23:10.942Z,57.70
2019-04-30T14:25:40.042Z,57.70
2019-04-30T14:28:09.491Z,57.80
2019-04-30T14:30:39.355Z,57.90
2019-04-30T14:33:09.437Z,58.10
2019-04-30T14:35:38.873Z,57.80
2019-04-30T14:38:09.042Z,58.10
2019-04-30T14:40:40.499Z,58.20
2019-04-30T14:43:30.042Z,58.20
2019-04-30T14:46:21.571Z,58.00
2019-04-30T14:48:54.639Z,58.30
2019-04-30T14:51:24.271Z,58.20
2019-04-30T14:54:03.793Z,58.20
2019-04-30T14:56:39.363Z,58.30
2019-04-30T14:59:28.820Z,58.40
2019-04-30T15:02:06.293Z,58.30
2019-04-30T15:04:39.347Z,58.60
2019-04-30T15:07:09.676Z,58.30
2019-04-30T15:09:39.036Z,58.50
2019-04-30T15:12:09.715Z,58.30
2019-04-30T15:14:40.911Z,58.50
2019-04-30T15:17:09.830Z,58.50
2019-04-30T15:19:38.960Z,58.50
2019-04-30T15:22:09.138Z,58.30
2019-04-30T15:24:39.354Z,58.60
2019-04-30T15:27:09.258Z,58.50
2019-04-30T15:29:39.197Z,58.50
2019-04-30T15:32:08.806Z,58.50
2019-04-30T15:34:40.854Z,58.30
2019-04-30T15:37:18.670Z,58.40
2019-04-30T15:39:41.741Z,58.40
2019-04-30T15:42:12.110Z,58.30
2019-04-30T15:44:45.214Z,58.10
2019-04-30T15:47:13.163Z,57.70
2019-04-30T15:49:42.302Z,58.30
2019-04-30T15:52:11.650Z,58.40
2019-04-30T15:54:40.833Z,58.20
2019-04-30T15:57:09.958Z,58.20
2019-04-30T15:59:40.741Z,58.50
2019-04-30T16:02:35.184Z,58.20
2019-04-30T16:05:26.906Z,58.40
2019-04-30T16:08:08.887Z,58.10
2019-04-30T16:10:52.913Z,58.20
2019-04-30T16:13:24.326Z,58.10
2019-04-30T16:15:53.472Z,58.20
2019-04-30T16:18:22.760Z,57.90
2019-04-30T16:20:51.998Z,58.10
2019-04-30T16:23:21.647Z,58.30
2019-04-30T16:25:50.784Z,58.40
2019-04-30T16:28:19.929Z,58.20
2019-04-30T16:30:49.100Z,59.00
2019-04-30T16:33:19.447Z,58.10
2019-04-30T16:35:54.972Z,58.20
2019-04-30T16:38:28.860Z,58.30
2019-04-30T16:43:52.674Z,58.40
2019-04-30T16:46:21.968Z,58.40
2019-04-30T16:48:51.243Z,58.30
2019-04-30T16:51:20.698Z,58.30
2019-04-30T16:53:50.064Z,58.40
2019-04-30T16:56:19.669Z,58.60
2019-04-30T16:59:03.230Z,58.30
2019-04-30T17:01:34.012Z,59.00
2019-04-30T17:04:13.305Z,58.30
2019-04-30T17:06:48.813Z,58.30
2019-04-30T17:09:27.733Z,58.40
2019-04-30T17:12:05.444Z,58.60
2019-04-30T17:14:35.460Z,58.50
2019-04-30T17:17:04.599Z,58.70
2019-04-30T17:19:33.787Z,58.50
2019-04-30T17:22:03.239Z,58.40
2019-04-30T17:24:32.342Z,58.50
2019-04-30T17:27:01.466Z,58.60
2019-04-30T17:29:30.575Z,58.70
2019-04-30T17:31:59.829Z,58.90
2019-04-30T17:34:30.841Z,58.80
2019-04-30T17:36:59.818Z,58.60
2019-04-30T17:39:29.219Z,58.60
2019-04-30T17:41:58.342Z,58.80
2019-04-30T17:44:28.930Z,58.90
2019-04-30T17:46:59.978Z,59.10
2019-04-30T17:49:28.976Z,59.80
2019-04-30T17:51:59.201Z,59.30
2019-04-30T17:54:28.536Z,59.30
2019-04-30T17:56:57.671Z,59.20
2019-04-30T17:59:26.880Z,59.10
2019-04-30T18:02:02.149Z,59.10
2019-04-30T18:04:31.271Z,59.30
2019-04-30T18:07:00.536Z,59.10
2019-04-30T18:09:29.653Z,59.10
2019-04-30T18:11:59.815Z,59.10
2019-04-30T18:14:28.999Z,59.00
2019-04-30T18:16:59.433Z,59.10
2019-04-30T18:19:35.819Z,59.10
2019-04-30T18:22:12.812Z,59.20
2019-04-30T18:25:19.398Z,59.40
2019-04-30T18:27:53.419Z,59.40
2019-04-30T18:30:26.166Z,59.60
2019-04-30T18:32:55.348Z,59.80
2019-04-30T18:35:24.475Z,59.80
2019-04-30T18:37:53.592Z,60.50
2019-04-30T18:40:22.726Z,60.00
2019-04-30T18:42:51.853Z,59.90
2019-04-30T18:45:21.095Z,60.00
2019-04-30T18:47:50.172Z,60.00
2019-04-30T18:50:19.459Z,60.20
2019-04-30T18:52:50.726Z,60.00
2019-04-30T18:55:20.138Z,60.10
2019-04-30T18:57:56.356Z,60.00
2019-04-30T19:00:29.393Z,60.00
2019-04-30T19:02:58.812Z,60.50
2019-04-30T19:05:29.387Z,60.30
2019-04-30T19:08:04.851Z,60.40
2019-04-30T19:10:54.984Z,60.40
2019-04-30T19:13:43.287Z,60.40
2019-04-30T19:16:29.466Z,60.30
2019-04-30T19:19:04.623Z,60.40
2019-04-30T19:21:33.925Z,60.70
2019-04-30T19:24:03.083Z,61.40
2019-04-30T19:26:32.405Z,60.40
2019-04-30T19:29:01.862Z,60.20
2019-04-30T19:31:31.108Z,61.00
2019-04-30T19:34:00.447Z,60.40
2019-04-30T19:36:37.347Z,60.40
2019-04-30T19:39:00.523Z,60.30
2019-04-30T19:41:32.512Z,60.30
2019-04-30T19:44:01.914Z,60.70
2019-04-30T19:46:31.384Z,60.20
2019-04-30T19:49:01.029Z,60.60
2019-04-30T19:51:30.302Z,60.30
2019-04-30T19:54:00.067Z,60.20
2019-04-30T19:56:32.605Z,60.20
2019-04-30T19:59:05.284Z,60.30
2019-04-30T20:01:31.528Z,60.80
2019-04-30T20:04:01.006Z,60.30
2019-04-30T20:06:30.119Z,60.00
2019-04-30T20:09:00.781Z,60.00
2019-04-30T20:11:30.029Z,60.00
2019-04-30T20:14:00.499Z,60.00
2019-04-30T20:16:29.733Z,60.10
2019-04-30T20:18:59.264Z,60.20
2019-04-30T20:21:44.968Z,60.20
2019-04-30T20:23:59.547Z,60.00
2019-04-30T20:26:28.676Z,59.90
2019-04-30T20:28:58.969Z,60.00
2019-04-30T20:31:28.740Z,59.90
2019-04-30T20:33:59.115Z,59.90
2019-04-30T20:36:28.945Z,59.90
2019-04-30T20:39:17.202Z,59.90
2019-04-30T20:41:47.826Z,59.90
2019-04-30T20:44:18.911Z,59.80
2019-04-30T20:46:49.087Z,59.80
2019-04-30T20:49:19.213Z,60.00
2019-04-30T20:51:55.528Z,60.00
2019-04-30T20:54:19.417Z,60.00
2019-04-30T20:56:50.917Z,60.00
2019-04-30T20:59:19.350Z,60.90
2019-04-30T21:01:49.054Z,60.00
2019-04-30T21:04:20.828Z,60.20
2019-04-30T21:06:49.726Z,60.20
2019-04-30T21:09:18.939Z,60.20
2019-04-30T21:11:48.982Z,60.10
2019-04-30T21:14:19.267Z,60.00
2019-04-30T21:16:48.703Z,60.00
2019-04-30T21:19:17.934Z,60.00
2019-04-30T21:21:47.059Z,60.00
2019-04-30T21:24:16.190Z,60.00
2019-04-30T21:26:45.370Z,60.00
2019-04-30T21:29:16.026Z,60.20
2019-04-30T21:32:03.073Z,60.20
2019-04-30T21:34:45.554Z,60.10
2019-04-30T21:37:14.767Z,60.20
2019-04-30T21:39:43.892Z,60.20
2019-04-30T21:42:17.347Z,60.00
2019-04-30T21:44:46.460Z,60.00
2019-04-30T21:47:15.563Z,60.10
2019-04-30T21:49:44.583Z,60.20
2019-04-30T21:52:13.734Z,60.10
2019-04-30T21:54:42.767Z,60.20
2019-04-30T21:57:11.938Z,60.40
2019-04-30T21:59:41.075Z,60.60
2019-04-30T22:02:10.646Z,60.30
2019-04-30T22:04:39.746Z,60.20
2019-04-30T22:07:09.420Z,61.20
2019-04-30T22:09:38.606Z,60.10
2019-04-30T22:12:09.227Z,60.20
2019-04-30T22:14:38.418Z,60.10
2019-04-30T22:17:09.195Z,60.10
2019-04-30T22:19:38.535Z,60.20
2019-04-30T22:22:09.340Z,60.30
2019-04-30T22:24:38.835Z,60.10
2019-04-30T22:27:08.210Z,60.40
2019-04-30T22:29:41.874Z,60.30
2019-04-30T22:32:09.350Z,60.20
2019-04-30T22:34:38.715Z,60.10
2019-04-30T22:37:08.569Z,60.50
2019-04-30T22:39:42.663Z,60.60
2019-04-30T22:42:43.005Z,60.50
2019-04-30T22:45:29.427Z,60.40
2019-04-30T22:47:59.013Z,60.40
2019-04-30T22:50:28.147Z,60.10
2019-04-30T22:52:57.236Z,60.30
2019-04-30T22:55:26.399Z,60.50
2019-04-30T22:57:55.485Z,60.50
2019-04-30T23:00:34.033Z,60.50
2019-04-30T23:03:06.422Z,60.60
2019-04-30T23:05:35.575Z,60.50
2019-04-30T23:08:05.012Z,60.50
2019-04-30T23:10:34.220Z,60.30
2019-04-30T23:13:03.300Z,60.10
2019-04-30T23:15:32.507Z,60.10
2019-04-30T23:18:01.582Z,59.60
2019-04-30T23:20:30.715Z,59.70
2019-04-30T23:22:59.856Z,60.20
2019-04-30T23:25:28.947Z,60.50
2019-04-30T23:27:58.029Z,60.30
2019-04-30T23:30:27.272Z,60.40
2019-04-30T23:32:56.475Z,60.80
2019-04-30T23:35:25.630Z,60.90
2019-04-30T23:37:54.734Z,60.90
2019-04-30T23:40:29.124Z,60.60
2019-04-30T23:42:58.259Z,60.40
2019-04-30T23:45:27.343Z,60.40
2019-04-30T23:47:56.433Z,60.10
2019-04-30T23:50:25.546Z,60.10
2019-04-30T23:52:54.660Z,60.10
2019-04-30T23:55:23.876Z,60.30
2019-04-30T23:57:52.975Z,60.30
